createdAt,value
2023-04-29T09:04:03.183Z,1.77
2023-04-29T09:09:30.253Z,1.59
2023-04-29T09:14:57.606Z,1.86
2023-04-29T09:20:20.518Z,1.42
2023-04-29T09:25:46.009Z,1.66
2023-04-29T09:31:13.256Z,1.75
2023-04-29T09:36:37.395Z,1.51
2023-04-29T09:41:56.379Z,1.47
2023-04-29T09:47:20.515Z,1.42
2023-04-29T09:52:48.581Z,2.05
2023-04-29T09:58:27.280Z,1.93
2023-04-29T10:03:50.180Z,1.91
2023-04-29T10:09:14.982Z,1.40
2023-04-29T10:14:39.654Z,1.81
2023-04-29T10:19:59.304Z,1.45
2023-04-29T10:25:25.432Z,1.45
2023-04-29T10:30:50.691Z,1.29
2023-04-29T10:36:11.233Z,1.41
2023-04-29T10:41:35.935Z,1.44
2023-04-29T10:46:59.942Z,1.43
2023-04-29T10:52:55.121Z,1.47
2023-04-29T10:58:14.889Z,1.58
2023-04-29T11:03:52.561Z,1.56
2023-04-29T11:09:20.092Z,1.94
2023-04-29T11:14:41.069Z,1.72
2023-04-29T11:20:05.079Z,1.56
2023-04-29T11:25:32.588Z,1.37
2023-04-29T11:30:53.502Z,1.47
2023-04-29T11:36:11.963Z,1.41
2023-04-29T11:41:34.425Z,1.43
2023-04-29T11:46:59.587Z,1.30
2023-04-29T11:53:04.719Z,1.05
2023-04-29T11:58:25.272Z,1.00
2023-04-29T12:03:46.766Z,1.27
2023-04-29T12:09:12.325Z,1.20
2023-04-29T12:14:35.723Z,1.03
2023-04-29T12:19:58.910Z,1.36
2023-04-29T12:25:25.071Z,1.63
2023-04-29T12:30:47.079Z,1.41
2023-04-29T12:36:10.838Z,1.25
2023-04-29T12:41:38.315Z,1.20
2023-04-29T12:47:03.365Z,1.31
2023-04-29T12:52:26.978Z,1.18
2023-04-29T12:57:50.867Z,1.23
2023-04-29T13:03:14.598Z,1.39
2023-04-29T13:08:39.335Z,1.05
2023-04-29T13:14:02.958Z,1.08
2023-04-29T13:19:39.373Z,1.33
2023-04-29T13:24:52.258Z,1.06
2023-04-29T13:30:13.843Z,1.16
2023-04-29T13:35:39.105Z,1.00
2023-04-29T13:41:07.561Z,1.09
2023-04-29T13:46:26.602Z,1.11
2023-04-29T13:52:20.336Z,1.24
2023-04-29T14:03:26.583Z,1.10
2023-04-29T14:08:48.984Z,0.83
2023-04-29T14:14:10.572Z,1.21
2023-04-29T14:19:35.598Z,1.30
2023-04-29T14:24:58.264Z,0.86
2023-04-29T14:30:40.173Z,1.15
2023-04-29T14:36:00.431Z,1.00
2023-04-29T14:41:26.011Z,0.95
2023-04-29T14:46:48.666Z,0.85
2023-04-29T14:52:12.565Z,0.93
2023-04-29T14:57:37.869Z,0.85
2023-04-29T15:03:04.081Z,0.85
2023-04-29T15:08:27.407Z,1.16
2023-04-29T15:14:30.301Z,1.00
2023-04-29T15:20:04.881Z,1.37
2023-04-29T15:25:27.460Z,0.97
2023-04-29T15:31:12.549Z,1.15
2023-04-29T15:36:36.455Z,0.89
2023-04-29T15:41:57.782Z,1.24
2023-04-29T15:47:25.791Z,1.01
2023-04-29T15:52:50.501Z,0.98
2023-04-29T15:58:12.704Z,0.92
2023-04-29T16:03:50.115Z,1.18
2023-04-29T16:09:12.759Z,0.89
2023-04-29T16:14:37.004Z,1.26
2023-04-29T16:20:02.535Z,2.08
2023-04-29T16:25:27.252Z,1.38
2023-04-29T16:30:51.954Z,4.40
2023-04-29T16:36:41.065Z,3.48
2023-04-29T16:42:03.828Z,1.58
2023-04-29T16:47:24.664Z,1.32
2023-04-29T16:52:47.833Z,1.31
2023-04-29T16:58:12.342Z,2.58
2023-04-29T17:03:37.359Z,4.57
2023-04-29T17:09:01.270Z,1.10
2023-04-29T17:14:26.901Z,0.75
2023-04-29T17:19:52.086Z,1.66
2023-04-29T17:25:26.211Z,1.20
2023-04-29T17:30:48.909Z,0.66
2023-04-29T17:36:33.099Z,0.79
2023-04-29T17:41:57.174Z,0.56
2023-04-29T17:47:22.346Z,0.51
2023-04-29T17:52:44.512Z,0.39
2023-04-29T17:58:07.656Z,0.60
2023-04-29T18:03:33.017Z,0.57
2023-04-29T18:08:51.123Z,1.43
2023-04-29T18:14:14.269Z,1.09
2023-04-29T18:19:39.571Z,0.64
2023-04-29T18:25:05.265Z,0.71
2023-04-29T18:31:17.259Z,0.76
2023-04-29T18:36:39.706Z,0.90
2023-04-29T18:42:04.954Z,0.86
2023-04-29T18:47:47.750Z,1.38
2023-04-29T18:53:08.661Z,0.99
2023-04-29T18:58:29.572Z,0.93
2023-04-29T19:03:54.180Z,0.94
2023-04-29T19:09:18.964Z,1.23
2023-04-29T19:14:56.479Z,1.39
2023-04-29T19:20:19.669Z,1.25
2023-04-29T19:25:40.571Z,1.36
2023-04-29T19:31:04.993Z,1.55
2023-04-29T19:36:30.670Z,1.87
2023-04-29T19:41:56.124Z,1.53
2023-04-29T19:47:19.556Z,1.75
2023-04-29T19:52:45.266Z,1.64
2023-04-29T19:58:08.580Z,1.88
2023-04-29T20:03:32.377Z,2.12
2023-04-29T20:08:55.018Z,2.07
2023-04-29T20:14:23.033Z,2.26
2023-04-29T20:19:41.313Z,1.85
2023-04-29T20:25:06.666Z,2.39
2023-04-29T20:30:27.895Z,1.92
2023-04-29T20:36:09.193Z,2.36
2023-04-29T20:41:33.171Z,1.99
2023-04-29T20:46:58.143Z,2.00
2023-04-29T20:52:20.821Z,1.82
2023-04-29T20:57:44.192Z,2.20
2023-04-29T21:03:02.835Z,2.04
2023-04-29T21:08:46.789Z,2.44
2023-04-29T21:14:09.795Z,2.32
2023-04-29T21:19:31.885Z,1.93
2023-04-29T21:24:55.899Z,2.11
2023-04-29T21:30:22.275Z,2.24
2023-04-29T21:35:48.328Z,2.05
2023-04-29T21:41:12.262Z,2.21
2023-04-29T21:46:35.882Z,2.24
2023-04-29T21:51:59.381Z,2.34
2023-04-29T21:57:32.152Z,2.66
2023-04-29T22:02:45.093Z,2.42
2023-04-29T22:08:08.030Z,2.43
2023-04-29T22:13:31.472Z,2.32
2023-04-29T22:18:54.626Z,2.63
2023-04-29T22:24:16.177Z,2.54
2023-04-29T22:29:40.961Z,2.28
2023-04-29T22:35:06.020Z,2.46
2023-04-29T22:40:29.723Z,2.65
2023-04-29T22:45:54.041Z,2.65
2023-04-29T22:51:19.001Z,2.51
2023-04-29T22:56:40.532Z,2.16
2023-04-29T23:02:03.350Z,2.26
2023-04-29T23:07:30.873Z,2.82
2023-04-29T23:12:48.989Z,2.35
2023-04-29T23:18:13.248Z,2.39
2023-04-29T23:23:35.000Z,2.24
2023-04-29T23:28:59.795Z,2.36
2023-04-29T23:34:23.824Z,2.41
2023-04-29T23:39:45.726Z,2.97
2023-04-29T23:45:10.336Z,2.86
2023-04-29T23:50:34.444Z,2.59
2023-04-29T23:55:52.070Z,2.44
